sensor_id;sensor_type;location;lat;lon;timestamp;temperature;humidity
6756;DHT22;3415;51.148;7.014;2024-03-17T06:31:21;6.00;1.00
6756;DHT22;3415;51.148;7.014;2024-03-17T06:36:15;6.60;1.00
6756;DHT22;3415;51.148;7.014;2024-03-17T06:38:43;6.60;1.00
6756;DHT22;3415;51.148;7.014;2024-03-17T06:41:10;6.80;1.00
6756;DHT22;3415;51.148;7.014;2024-03-17T06:43:38;7.00;1.00
6756;DHT22;3415;51.148;7.014;2024-03-17T06:46:05;7.00;1.00
6756;DHT22;3415;51.148;7.014;2024-03-17T06:48:34;7.30;1.00
6756;DHT22;3415;51.148;7.014;2024-03-17T06:51:01;7.30;1.00
6756;DHT22;3415;51.148;7.014;2024-03-17T06:55:55;7.40;1.00
6756;DHT22;3415;51.148;7.014;2024-03-17T06:58:21;7.40;1.00
6756;DHT22;3415;51.148;7.014;2024-03-17T07:00:55;7.50;1.00
6756;DHT22;3415;51.148;7.014;2024-03-17T07:03:23;7.50;1.00
6756;DHT22;3415;51.148;7.014;2024-03-17T07:05:53;7.60;1.00
6756;DHT22;3415;51.148;7.014;2024-03-17T07:08:21;7.60;1.00
6756;DHT22;3415;51.148;7.014;2024-03-17T07:11:01;7.90;1.00
6756;DHT22;3415;51.148;7.014;2024-03-17T07:13:29;8.10;1.00
6756;DHT22;3415;51.148;7.014;2024-03-17T07:15:56;8.10;1.00
6756;DHT22;3415;51.148;7.014;2024-03-17T07:18:25;8.20;1.00
6756;DHT22;3415;51.148;7.014;2024-03-17T07:20:53;8.10;1.00
6756;DHT22;3415;51.148;7.014;2024-03-17T07:23:22;8.10;1.00
6756;DHT22;3415;51.148;7.014;2024-03-17T07:25:53;8.10;1.00
6756;DHT22;3415;51.148;7.014;2024-03-17T07:28:20;7.90;1.00
6756;DHT22;3415;51.148;7.014;2024-03-17T07:30:48;7.80;1.00
6756;DHT22;3415;51.148;7.014;2024-03-17T07:35:47;7.80;1.00
6756;DHT22;3415;51.148;7.014;2024-03-17T07:38:15;7.80;1.00
6756;DHT22;3415;51.148;7.014;2024-03-17T07:40:42;7.90;1.00
6756;DHT22;3415;51.148;7.014;2024-03-17T07:43:09;7.90;1.00
6756;DHT22;3415;51.148;7.014;2024-03-17T07:45:37;7.90;1.00
6756;DHT22;3415;51.148;7.014;2024-03-17T07:50:31;8.20;1.00
6756;DHT22;3415;51.148;7.014;2024-03-17T07:53:00;8.10;1.00
6756;DHT22;3415;51.148;7.014;2024-03-17T07:55:31;8.30;1.00
6756;DHT22;3415;51.148;7.014;2024-03-17T07:57:58;9.00;1.00
6756;DHT22;3415;51.148;7.014;2024-03-17T08:00:25;9.10;1.00
6756;DHT22;3415;51.148;7.014;2024-03-17T08:02:52;10.30;1.00
6756;DHT22;3415;51.148;7.014;2024-03-17T08:05:20;11.30;1.00
6756;DHT22;3415;51.148;7.014;2024-03-17T08:07:47;13.00;1.00
6756;DHT22;3415;51.148;7.014;2024-03-17T08:10:14;13.30;1.00
6756;DHT22;3415;51.148;7.014;2024-03-17T08:12:44;13.40;1.00
6756;DHT22;3415;51.148;7.014;2024-03-17T08:15:11;13.10;99.90
6756;DHT22;3415;51.148;7.014;2024-03-17T08:17:39;12.50;99.90
6756;DHT22;3415;51.148;7.014;2024-03-17T08:20:07;12.80;99.90
6756;DHT22;3415;51.148;7.014;2024-03-17T08:22:34;13.70;99.90
6756;DHT22;3415;51.148;7.014;2024-03-17T08:25:00;14.50;99.90
6756;DHT22;3415;51.148;7.014;2024-03-17T08:27:27;14.50;99.90
6756;DHT22;3415;51.148;7.014;2024-03-17T08:29:55;13.20;99.90
6756;DHT22;3415;51.148;7.014;2024-03-17T08:32:22;13.20;99.90
6756;DHT22;3415;51.148;7.014;2024-03-17T08:34:49;12.30;99.90
6756;DHT22;3415;51.148;7.014;2024-03-17T08:37:16;12.60;99.90
6756;DHT22;3415;51.148;7.014;2024-03-17T08:39:43;12.60;99.90
6756;DHT22;3415;51.148;7.014;2024-03-17T08:42:10;13.30;99.90
6756;DHT22;3415;51.148;7.014;2024-03-17T08:44:36;14.00;99.90
6756;DHT22;3415;51.148;7.014;2024-03-17T08:47:05;14.70;99.90
6756;DHT22;3415;51.148;7.014;2024-03-17T08:49:32;15.20;99.90
6756;DHT22;3415;51.148;7.014;2024-03-17T08:54:25;15.70;99.90
6756;DHT22;3415;51.148;7.014;2024-03-17T08:56:52;15.30;99.90
6756;DHT22;3415;51.148;7.014;2024-03-17T08:59:19;15.10;99.90
6756;DHT22;3415;51.148;7.014;2024-03-17T09:01:49;14.80;99.90
6756;DHT22;3415;51.148;7.014;2024-03-17T09:04:17;14.80;99.90
6756;DHT22;3415;51.148;7.014;2024-03-17T09:06:44;14.20;99.90
6756;DHT22;3415;51.148;7.014;2024-03-17T09:09:11;12.70;99.90
6756;DHT22;3415;51.148;7.014;2024-03-17T09:16:34;13.90;99.90
6756;DHT22;3415;51.148;7.014;2024-03-17T09:21:29;13.40;99.90
6756;DHT22;3415;51.148;7.014;2024-03-17T09:23:57;12.90;99.90
6756;DHT22;3415;51.148;7.014;2024-03-17T09:26:25;12.60;99.90
6756;DHT22;3415;51.148;7.014;2024-03-17T09:28:53;12.50;99.90
6756;DHT22;3415;51.148;7.014;2024-03-17T09:31:20;12.40;99.90
6756;DHT22;3415;51.148;7.014;2024-03-17T09:33:46;12.70;99.90
6756;DHT22;3415;51.148;7.014;2024-03-17T09:36:14;13.40;99.90
6756;DHT22;3415;51.148;7.014;2024-03-17T09:38:42;13.40;99.90
6756;DHT22;3415;51.148;7.014;2024-03-17T09:41:19;13.20;99.90
6756;DHT22;3415;51.148;7.014;2024-03-17T09:43:47;13.20;99.90
6756;DHT22;3415;51.148;7.014;2024-03-17T09:46:15;12.80;99.90
6756;DHT22;3415;51.148;7.014;2024-03-17T09:48:42;13.20;99.90
6756;DHT22;3415;51.148;7.014;2024-03-17T09:51:16;13.40;99.90
6756;DHT22;3415;51.148;7.014;2024-03-17T09:53:46;13.90;99.90
6756;DHT22;3415;51.148;7.014;2024-03-17T09:56:14;15.80;99.90
6756;DHT22;3415;51.148;7.014;2024-03-17T09:58:42;15.80;99.90
6756;DHT22;3415;51.148;7.014;2024-03-17T10:01:09;14.40;99.90
6756;DHT22;3415;51.148;7.014;2024-03-17T10:03:41;14.50;99.90
6756;DHT22;3415;51.148;7.014;2024-03-17T10:06:10;13.70;99.90
6756;DHT22;3415;51.148;7.014;2024-03-17T10:08:50;13.10;99.90
6756;DHT22;3415;51.148;7.014;2024-03-17T10:11:19;12.70;99.90
6756;DHT22;3415;51.148;7.014;2024-03-17T10:14:00;12.70;99.90
6756;DHT22;3415;51.148;7.014;2024-03-17T10:16:28;12.70;99.90
6756;DHT22;3415;51.148;7.014;2024-03-17T10:19:07;13.10;99.90
6756;DHT22;3415;51.148;7.014;2024-03-17T10:21:36;13.10;99.90
6756;DHT22;3415;51.148;7.014;2024-03-17T10:24:09;13.40;99.90
6756;DHT22;3415;51.148;7.014;2024-03-17T10:26:38;13.00;99.90
6756;DHT22;3415;51.148;7.014;2024-03-17T10:29:21;13.00;99.90
6756;DHT22;3415;51.148;7.014;2024-03-17T10:31:50;12.60;99.90
6756;DHT22;3415;51.148;7.014;2024-03-17T10:34:17;12.50;99.90
6756;DHT22;3415;51.148;7.014;2024-03-17T10:36:45;12.20;99.90
6756;DHT22;3415;51.148;7.014;2024-03-17T10:39:29;12.20;99.90
6756;DHT22;3415;51.148;7.014;2024-03-17T10:41:59;12.30;99.90
6756;DHT22;3415;51.148;7.014;2024-03-17T10:44:27;12.30;99.90
6756;DHT22;3415;51.148;7.014;2024-03-17T10:46:55;12.80;99.90
6756;DHT22;3415;51.148;7.014;2024-03-17T10:49:25;12.80;99.90
6756;DHT22;3415;51.148;7.014;2024-03-17T10:51:57;13.30;99.90
6756;DHT22;3415;51.148;7.014;2024-03-17T10:54:25;13.60;99.90
6756;DHT22;3415;51.148;7.014;2024-03-17T10:56:56;13.60;99.90
6756;DHT22;3415;51.148;7.014;2024-03-17T10:59:38;14.00;99.90
6756;DHT22;3415;51.148;7.014;2024-03-17T11:02:17;14.20;99.90
6756;DHT22;3415;51.148;7.014;2024-03-17T11:04:49;13.80;99.90
6756;DHT22;3415;51.148;7.014;2024-03-17T11:07:17;13.50;99.90
6756;DHT22;3415;51.148;7.014;2024-03-17T11:09:45;13.30;99.90
6756;DHT22;3415;51.148;7.014;2024-03-17T11:12:42;13.50;99.90
6756;DHT22;3415;51.148;7.014;2024-03-17T11:15:38;13.50;99.90
6756;DHT22;3415;51.148;7.014;2024-03-17T11:18:28;13.70;99.90
6756;DHT22;3415;51.148;7.014;2024-03-17T11:20:57;14.80;99.90
6756;DHT22;3415;51.148;7.014;2024-03-17T11:23:29;14.80;99.90
6756;DHT22;3415;51.148;7.014;2024-03-17T11:25:57;14.90;99.90
6756;DHT22;3415;51.148;7.014;2024-03-17T11:28:46;15.00;99.90
6756;DHT22;3415;51.148;7.014;2024-03-17T11:31:39;14.90;99.90
6756;DHT22;3415;51.148;7.014;2024-03-17T11:34:34;14.80;99.90
6756;DHT22;3415;51.148;7.014;2024-03-17T11:37:03;15.50;99.90
6756;DHT22;3415;51.148;7.014;2024-03-17T11:39:47;15.30;99.90
6756;DHT22;3415;51.148;7.014;2024-03-17T11:42:15;15.90;99.90
6756;DHT22;3415;51.148;7.014;2024-03-17T11:44:44;16.00;99.90
6756;DHT22;3415;51.148;7.014;2024-03-17T11:49:46;17.10;99.90
6756;DHT22;3415;51.148;7.014;2024-03-17T11:52:14;17.50;99.90
6756;DHT22;3415;51.148;7.014;2024-03-17T11:54:42;17.50;99.90
6756;DHT22;3415;51.148;7.014;2024-03-17T11:57:10;17.10;99.90
6756;DHT22;3415;51.148;7.014;2024-03-17T11:59:37;17.10;99.90
6756;DHT22;3415;51.148;7.014;2024-03-17T12:02:17;16.70;99.90
6756;DHT22;3415;51.148;7.014;2024-03-17T12:04:43;16.80;99.90
6756;DHT22;3415;51.148;7.014;2024-03-17T12:07:18;17.20;99.90
6756;DHT22;3415;51.148;7.014;2024-03-17T12:09:45;17.10;99.90
6756;DHT22;3415;51.148;7.014;2024-03-17T12:12:17;16.50;99.90
6756;DHT22;3415;51.148;7.014;2024-03-17T12:14:43;16.50;99.90
6756;DHT22;3415;51.148;7.014;2024-03-17T12:17:12;16.10;99.90
6756;DHT22;3415;51.148;7.014;2024-03-17T12:19:40;16.00;99.90
6756;DHT22;3415;51.148;7.014;2024-03-17T12:22:08;16.00;99.90
6756;DHT22;3415;51.148;7.014;2024-03-17T12:24:35;15.90;99.90
6756;DHT22;3415;51.148;7.014;2024-03-17T12:27:05;15.90;99.90
6756;DHT22;3415;51.148;7.014;2024-03-17T12:29:32;15.90;99.90
6756;DHT22;3415;51.148;7.014;2024-03-17T12:32:02;15.70;99.90
6756;DHT22;3415;51.148;7.014;2024-03-17T12:34:31;15.40;99.90
6756;DHT22;3415;51.148;7.014;2024-03-17T12:37:00;15.10;99.90
6756;DHT22;3415;51.148;7.014;2024-03-17T12:39:27;14.80;99.90
6756;DHT22;3415;51.148;7.014;2024-03-17T12:42:04;14.90;99.90
6756;DHT22;3415;51.148;7.014;2024-03-17T12:44:30;14.90;99.90
6756;DHT22;3415;51.148;7.014;2024-03-17T12:46:58;14.90;99.90
6756;DHT22;3415;51.148;7.014;2024-03-17T12:49:26;14.80;99.90
6756;DHT22;3415;51.148;7.014;2024-03-17T12:51:54;14.70;99.90
6756;DHT22;3415;51.148;7.014;2024-03-17T12:54:22;14.70;99.90
6756;DHT22;3415;51.148;7.014;2024-03-17T12:56:50;14.70;99.90
6756;DHT22;3415;51.148;7.014;2024-03-17T12:59:39;14.80;99.90
6756;DHT22;3415;51.148;7.014;2024-03-17T13:02:23;15.10;99.90
6756;DHT22;3415;51.148;7.014;2024-03-17T13:05:14;14.80;99.90
6756;DHT22;3415;51.148;7.014;2024-03-17T13:07:43;14.80;99.90
6756;DHT22;3415;51.148;7.014;2024-03-17T13:10:12;14.70;99.90
6756;DHT22;3415;51.148;7.014;2024-03-17T13:12:40;14.50;99.90
6756;DHT22;3415;51.148;7.014;2024-03-17T13:15:09;14.40;99.90
6756;DHT22;3415;51.148;7.014;2024-03-17T13:17:37;14.40;99.90
6756;DHT22;3415;51.148;7.014;2024-03-17T13:20:06;14.60;99.90
6756;DHT22;3415;51.148;7.014;2024-03-17T13:22:37;14.50;99.90
6756;DHT22;3415;51.148;7.014;2024-03-17T13:25:09;14.50;99.90
6756;DHT22;3415;51.148;7.014;2024-03-17T13:27:39;14.40;99.90
6756;DHT22;3415;51.148;7.014;2024-03-17T13:30:07;14.50;99.90
6756;DHT22;3415;51.148;7.014;2024-03-17T13:32:34;14.20;99.90
6756;DHT22;3415;51.148;7.014;2024-03-17T13:35:02;14.30;99.90
6756;DHT22;3415;51.148;7.014;2024-03-17T13:37:30;14.00;99.90
6756;DHT22;3415;51.148;7.014;2024-03-17T13:39:57;14.10;99.90
6756;DHT22;3415;51.148;7.014;2024-03-17T13:42:29;14.20;99.90
6756;DHT22;3415;51.148;7.014;2024-03-17T13:44:56;14.20;99.90
6756;DHT22;3415;51.148;7.014;2024-03-17T13:47:23;14.20;99.90
6756;DHT22;3415;51.148;7.014;2024-03-17T13:49:50;14.10;99.90
6756;DHT22;3415;51.148;7.014;2024-03-17T13:52:17;14.10;99.90
6756;DHT22;3415;51.148;7.014;2024-03-17T13:54:45;14.40;99.90
6756;DHT22;3415;51.148;7.014;2024-03-17T13:57:12;14.20;99.90
6756;DHT22;3415;51.148;7.014;2024-03-17T13:59:40;14.10;99.90
6756;DHT22;3415;51.148;7.014;2024-03-17T14:02:12;14.20;99.90
6756;DHT22;3415;51.148;7.014;2024-03-17T14:04:39;14.00;99.90
6756;DHT22;3415;51.148;7.014;2024-03-17T14:07:06;14.10;99.90
6756;DHT22;3415;51.148;7.014;2024-03-17T14:09:34;14.10;99.90
6756;DHT22;3415;51.148;7.014;2024-03-17T14:12:01;14.10;99.90
6756;DHT22;3415;51.148;7.014;2024-03-17T14:14:28;14.10;99.90
6756;DHT22;3415;51.148;7.014;2024-03-17T14:16:57;14.10;99.90
6756;DHT22;3415;51.148;7.014;2024-03-17T14:19:24;14.20;99.90
6756;DHT22;3415;51.148;7.014;2024-03-17T14:24:20;14.20;99.90
6756;DHT22;3415;51.148;7.014;2024-03-17T14:26:46;14.20;99.90
6756;DHT22;3415;51.148;7.014;2024-03-17T14:29:13;14.30;99.90
6756;DHT22;3415;51.148;7.014;2024-03-17T14:31:41;14.20;99.90
6756;DHT22;3415;51.148;7.014;2024-03-17T14:34:11;14.10;99.90
6756;DHT22;3415;51.148;7.014;2024-03-17T14:36:38;14.00;99.90
6756;DHT22;3415;51.148;7.014;2024-03-17T14:39:05;14.10;99.90
6756;DHT22;3415;51.148;7.014;2024-03-17T14:41:33;14.10;99.90
6756;DHT22;3415;51.148;7.014;2024-03-17T14:44:00;14.10;99.90
6756;DHT22;3415;51.148;7.014;2024-03-17T14:46:26;14.20;99.90
6756;DHT22;3415;51.148;7.014;2024-03-17T14:48:54;14.20;99.90
6756;DHT22;3415;51.148;7.014;2024-03-17T14:51:22;14.40;99.90
6756;DHT22;3415;51.148;7.014;2024-03-17T14:53:49;14.30;99.90
6756;DHT22;3415;51.148;7.014;2024-03-17T14:56:17;14.50;99.90
6756;DHT22;3415;51.148;7.014;2024-03-17T14:58:45;14.50;99.90
6756;DHT22;3415;51.148;7.014;2024-03-17T15:01:13;14.60;99.90
6756;DHT22;3415;51.148;7.014;2024-03-17T15:03:40;14.60;99.90
6756;DHT22;3415;51.148;7.014;2024-03-17T15:06:11;14.40;99.90
6756;DHT22;3415;51.148;7.014;2024-03-17T15:08:39;14.50;99.90
6756;DHT22;3415;51.148;7.014;2024-03-17T15:11:06;14.60;99.90
6756;DHT22;3415;51.148;7.014;2024-03-17T15:13:35;14.60;99.90
6756;DHT22;3415;51.148;7.014;2024-03-17T15:18:30;14.30;99.90
6756;DHT22;3415;51.148;7.014;2024-03-17T15:20:57;14.20;99.90
6756;DHT22;3415;51.148;7.014;2024-03-17T15:23:26;14.20;99.90
6756;DHT22;3415;51.148;7.014;2024-03-17T15:26:00;14.20;99.90
6756;DHT22;3415;51.148;7.014;2024-03-17T15:28:32;14.20;99.90
6756;DHT22;3415;51.148;7.014;2024-03-17T15:30:59;14.20;99.90
6756;DHT22;3415;51.148;7.014;2024-03-17T15:33:27;14.20;99.90
6756;DHT22;3415;51.148;7.014;2024-03-17T15:35:54;14.20;99.90
6756;DHT22;3415;51.148;7.014;2024-03-17T15:40:48;14.30;99.90
6756;DHT22;3415;51.148;7.014;2024-03-17T15:43:16;14.30;99.90
6756;DHT22;3415;51.148;7.014;2024-03-17T15:45:43;14.30;99.90
6756;DHT22;3415;51.148;7.014;2024-03-17T15:53:05;14.50;99.90
6756;DHT22;3415;51.148;7.014;2024-03-17T15:55:32;14.30;99.90
6756;DHT22;3415;51.148;7.014;2024-03-17T15:57:59;14.30;99.90
6756;DHT22;3415;51.148;7.014;2024-03-17T16:00:27;14.30;99.90
6756;DHT22;3415;51.148;7.014;2024-03-17T16:02:54;14.30;99.90
6756;DHT22;3415;51.148;7.014;2024-03-17T16:05:22;14.20;99.90
6756;DHT22;3415;51.148;7.014;2024-03-17T16:07:49;14.30;99.90
6756;DHT22;3415;51.148;7.014;2024-03-17T16:10:20;14.30;99.90
6756;DHT22;3415;51.148;7.014;2024-03-17T16:12:49;14.30;99.90
6756;DHT22;3415;51.148;7.014;2024-03-17T16:15:19;14.30;99.90
6756;DHT22;3415;51.148;7.014;2024-03-17T16:17:47;14.20;99.90
6756;DHT22;3415;51.148;7.014;2024-03-17T16:20:35;14.10;99.90
6756;DHT22;3415;51.148;7.014;2024-03-17T16:23:09;14.10;99.90
6756;DHT22;3415;51.148;7.014;2024-03-17T16:25:36;14.10;99.90
6756;DHT22;3415;51.148;7.014;2024-03-17T16:28:04;14.10;99.90
6756;DHT22;3415;51.148;7.014;2024-03-17T16:30:31;14.20;99.90
6756;DHT22;3415;51.148;7.014;2024-03-17T16:33:00;14.20;99.90
6756;DHT22;3415;51.148;7.014;2024-03-17T16:37:54;14.20;99.90
6756;DHT22;3415;51.148;7.014;2024-03-17T16:40:21;14.30;99.90
6756;DHT22;3415;51.148;7.014;2024-03-17T16:42:48;14.20;99.90
6756;DHT22;3415;51.148;7.014;2024-03-17T16:45:15;14.30;99.90
6756;DHT22;3415;51.148;7.014;2024-03-17T16:47:42;14.20;99.90
6756;DHT22;3415;51.148;7.014;2024-03-17T16:50:11;14.10;99.90
6756;DHT22;3415;51.148;7.014;2024-03-17T16:52:38;14.10;99.90
6756;DHT22;3415;51.148;7.014;2024-03-17T16:55:06;13.90;99.90
6756;DHT22;3415;51.148;7.014;2024-03-17T16:57:35;13.90;99.90
6756;DHT22;3415;51.148;7.014;2024-03-17T17:00:02;13.90;99.90
6756;DHT22;3415;51.148;7.014;2024-03-17T17:02:39;13.70;99.90
6756;DHT22;3415;51.148;7.014;2024-03-17T17:05:07;13.60;99.90
6756;DHT22;3415;51.148;7.014;2024-03-17T17:07:39;13.60;99.90
6756;DHT22;3415;51.148;7.014;2024-03-17T17:10:08;13.50;99.90
6756;DHT22;3415;51.148;7.014;2024-03-17T17:12:36;13.50;99.90
6756;DHT22;3415;51.148;7.014;2024-03-17T17:15:04;13.50;99.90
6756;DHT22;3415;51.148;7.014;2024-03-17T17:17:33;13.40;99.90
6756;DHT22;3415;51.148;7.014;2024-03-17T17:20:00;13.30;99.90
6756;DHT22;3415;51.148;7.014;2024-03-17T17:22:28;13.30;99.90
6756;DHT22;3415;51.148;7.014;2024-03-17T17:24:57;11.20;99.90
6756;DHT22;3415;51.148;7.014;2024-03-17T17:27:24;13.20;99.90
6756;DHT22;3415;51.148;7.014;2024-03-17T17:29:51;13.10;99.90
6756;DHT22;3415;51.148;7.014;2024-03-17T17:32:18;13.00;99.90
6756;DHT22;3415;51.148;7.014;2024-03-17T17:34:45;13.00;99.90
6756;DHT22;3415;51.148;7.014;2024-03-17T17:37:13;13.00;99.90
6756;DHT22;3415;51.148;7.014;2024-03-17T17:39:41;12.90;99.90
6756;DHT22;3415;51.148;7.014;2024-03-17T17:42:09;12.90;99.90
6756;DHT22;3415;51.148;7.014;2024-03-17T17:44:36;12.80;99.90
6756;DHT22;3415;51.148;7.014;2024-03-17T17:49:31;12.80;99.90
6756;DHT22;3415;51.148;7.014;2024-03-17T17:51:57;12.80;99.90
6756;DHT22;3415;51.148;7.014;2024-03-17T17:54:25;12.70;99.90
6756;DHT22;3415;51.148;7.014;2024-03-17T17:56:53;12.60;99.90
6756;DHT22;3415;51.148;7.014;2024-03-17T17:59:21;12.60;99.90
6756;DHT22;3415;51.148;7.014;2024-03-17T18:01:48;12.60;99.90
6756;DHT22;3415;51.148;7.014;2024-03-17T18:04:14;12.60;99.90
6756;DHT22;3415;51.148;7.014;2024-03-17T18:06:42;12.50;99.90
6756;DHT22;3415;51.148;7.014;2024-03-17T18:09:09;12.50;99.90
6756;DHT22;3415;51.148;7.014;2024-03-17T18:11:41;12.50;99.90
6756;DHT22;3415;51.148;7.014;2024-03-17T18:14:08;12.40;99.90
6756;DHT22;3415;51.148;7.014;2024-03-17T18:16:37;12.40;99.90
6756;DHT22;3415;51.148;7.014;2024-03-17T18:19:03;12.50;99.90
6756;DHT22;3415;51.148;7.014;2024-03-17T18:21:32;12.50;99.90
6756;DHT22;3415;51.148;7.014;2024-03-17T18:23:59;12.50;99.90
6756;DHT22;3415;51.148;7.014;2024-03-17T18:26:26;12.50;99.90
6756;DHT22;3415;51.148;7.014;2024-03-17T18:28:54;12.50;99.90
6756;DHT22;3415;51.148;7.014;2024-03-17T18:31:21;12.50;99.90
6756;DHT22;3415;51.148;7.014;2024-03-17T18:33:50;12.50;99.90
6756;DHT22;3415;51.148;7.014;2024-03-17T18:36:20;12.40;99.90
6756;DHT22;3415;51.148;7.014;2024-03-17T18:38:47;12.30;99.90
6756;DHT22;3415;51.148;7.014;2024-03-17T18:41:14;12.40;99.90
6756;DHT22;3415;51.148;7.014;2024-03-17T18:43:41;12.40;99.90
6756;DHT22;3415;51.148;7.014;2024-03-17T18:46:13;12.40;99.90
6756;DHT22;3415;51.148;7.014;2024-03-17T18:51:09;12.30;99.90
6756;DHT22;3415;51.148;7.014;2024-03-17T18:53:37;12.30;99.90
6756;DHT22;3415;51.148;7.014;2024-03-17T18:56:05;12.30;99.90
6756;DHT22;3415;51.148;7.014;2024-03-17T19:00:59;12.30;99.90
6756;DHT22;3415;51.148;7.014;2024-03-17T19:05:55;12.20;99.90
6756;DHT22;3415;51.148;7.014;2024-03-17T19:08:25;12.30;99.90
6756;DHT22;3415;51.148;7.014;2024-03-17T19:10:52;12.20;99.90
6756;DHT22;3415;51.148;7.014;2024-03-17T19:13:20;12.20;99.90
6756;DHT22;3415;51.148;7.014;2024-03-17T19:15:56;12.20;99.90
6756;DHT22;3415;51.148;7.014;2024-03-17T19:18:24;12.20;99.90
6756;DHT22;3415;51.148;7.014;2024-03-17T19:21:00;12.10;99.90
6756;DHT22;3415;51.148;7.014;2024-03-17T19:23:29;12.20;99.90
6756;DHT22;3415;51.148;7.014;2024-03-17T19:25:59;12.10;99.90
6756;DHT22;3415;51.148;7.014;2024-03-17T19:28:27;12.10;99.90
6756;DHT22;3415;51.148;7.014;2024-03-17T19:30:54;12.00;99.90
6756;DHT22;3415;51.148;7.014;2024-03-17T19:33:22;12.10;99.90
6756;DHT22;3415;51.148;7.014;2024-03-17T19:35:51;12.00;99.90
6756;DHT22;3415;51.148;7.014;2024-03-17T19:38:18;12.00;99.90
6756;DHT22;3415;51.148;7.014;2024-03-17T19:40:53;12.00;99.90
6756;DHT22;3415;51.148;7.014;2024-03-17T19:43:21;12.00;99.90
6756;DHT22;3415;51.148;7.014;2024-03-17T19:45:59;11.90;99.90
6756;DHT22;3415;51.148;7.014;2024-03-17T19:48:29;11.90;99.90
6756;DHT22;3415;51.148;7.014;2024-03-17T19:55:52;11.90;99.90
6756;DHT22;3415;51.148;7.014;2024-03-17T19:58:19;11.80;99.90
6756;DHT22;3415;51.148;7.014;2024-03-17T20:00:48;11.70;99.90
6756;DHT22;3415;51.148;7.014;2024-03-17T20:03:15;12.00;99.90
6756;DHT22;3415;51.148;7.014;2024-03-17T20:05:42;11.70;1.00
6756;DHT22;3415;51.148;7.014;2024-03-17T20:08:09;11.70;1.00
6756;DHT22;3415;51.148;7.014;2024-03-17T20:10:36;11.70;1.00
6756;DHT22;3415;51.148;7.014;2024-03-17T20:13:04;11.70;1.00
6756;DHT22;3415;51.148;7.014;2024-03-17T20:15:32;11.60;1.00
6756;DHT22;3415;51.148;7.014;2024-03-17T20:18:00;11.70;1.00
6756;DHT22;3415;51.148;7.014;2024-03-17T20:20:28;11.60;1.00
6756;DHT22;3415;51.148;7.014;2024-03-17T20:22:55;11.70;1.00
6756;DHT22;3415;51.148;7.014;2024-03-17T20:25:22;11.60;1.00
6756;DHT22;3415;51.148;7.014;2024-03-17T20:30:18;11.60;1.00
6756;DHT22;3415;51.148;7.014;2024-03-17T20:32:48;9.30;1.00
6756;DHT22;3415;51.148;7.014;2024-03-17T20:35:15;11.60;1.00
6756;DHT22;3415;51.148;7.014;2024-03-17T20:37:42;11.70;1.00
6756;DHT22;3415;51.148;7.014;2024-03-17T20:40:11;11.50;1.00
6756;DHT22;3415;51.148;7.014;2024-03-17T20:42:39;11.60;1.00
6756;DHT22;3415;51.148;7.014;2024-03-17T20:45:07;11.70;1.00
6756;DHT22;3415;51.148;7.014;2024-03-17T20:47:36;11.50;1.00
6756;DHT22;3415;51.148;7.014;2024-03-17T20:50:04;11.40;1.00
6756;DHT22;3415;51.148;7.014;2024-03-17T20:52:32;11.50;1.00
6756;DHT22;3415;51.148;7.014;2024-03-17T20:54:59;11.40;1.00
6756;DHT22;3415;51.148;7.014;2024-03-17T20:59:54;11.40;1.00
6756;DHT22;3415;51.148;7.014;2024-03-17T21:02:24;11.40;1.00
6756;DHT22;3415;51.148;7.014;2024-03-17T21:04:53;11.50;1.00
6756;DHT22;3415;51.148;7.014;2024-03-17T21:07:19;11.40;1.00
6756;DHT22;3415;51.148;7.014;2024-03-17T21:09:46;11.40;1.00
6756;DHT22;3415;51.148;7.014;2024-03-17T21:12:14;11.40;1.00
6756;DHT22;3415;51.148;7.014;2024-03-17T21:14:40;11.40;1.00
6756;DHT22;3415;51.148;7.014;2024-03-17T21:17:07;11.40;1.00
6756;DHT22;3415;51.148;7.014;2024-03-17T21:19:35;11.50;1.00
6756;DHT22;3415;51.148;7.014;2024-03-17T21:22:03;11.50;1.00
6756;DHT22;3415;51.148;7.014;2024-03-17T21:24:32;11.50;1.00
6756;DHT22;3415;51.148;7.014;2024-03-17T21:27:00;11.40;1.00
6756;DHT22;3415;51.148;7.014;2024-03-17T21:29:26;11.40;1.00
6756;DHT22;3415;51.148;7.014;2024-03-17T21:34:22;11.30;1.00
6756;DHT22;3415;51.148;7.014;2024-03-17T21:36:49;11.20;1.00
6756;DHT22;3415;51.148;7.014;2024-03-17T21:39:18;11.20;1.00
6756;DHT22;3415;51.148;7.014;2024-03-17T21:41:45;11.20;1.00
6756;DHT22;3415;51.148;7.014;2024-03-17T21:44:13;11.00;1.00
6756;DHT22;3415;51.148;7.014;2024-03-17T21:46:41;11.00;1.00
6756;DHT22;3415;51.148;7.014;2024-03-17T21:49:08;10.80;1.00
6756;DHT22;3415;51.148;7.014;2024-03-17T21:51:34;10.70;1.00
6756;DHT22;3415;51.148;7.014;2024-03-17T21:56:30;10.60;1.00
6756;DHT22;3415;51.148;7.014;2024-03-17T21:58:58;10.50;1.00
6756;DHT22;3415;51.148;7.014;2024-03-17T22:01:24;10.50;1.00
6756;DHT22;3415;51.148;7.014;2024-03-17T22:03:51;10.50;1.00
6756;DHT22;3415;51.148;7.014;2024-03-17T22:06:18;10.50;1.00
6756;DHT22;3415;51.148;7.014;2024-03-17T22:08:45;10.50;1.00
6756;DHT22;3415;51.148;7.014;2024-03-17T22:11:11;10.50;1.00
6756;DHT22;3415;51.148;7.014;2024-03-17T22:13:39;10.50;1.00
6756;DHT22;3415;51.148;7.014;2024-03-17T22:16:07;10.50;1.00
6756;DHT22;3415;51.148;7.014;2024-03-17T22:18:34;10.60;1.00
6756;DHT22;3415;51.148;7.014;2024-03-17T22:21:02;10.40;1.00
6756;DHT22;3415;51.148;7.014;2024-03-17T22:23:29;10.40;1.00
6756;DHT22;3415;51.148;7.014;2024-03-17T22:25:57;10.50;1.00
6756;DHT22;3415;51.148;7.014;2024-03-17T22:28:25;10.40;1.00
6756;DHT22;3415;51.148;7.014;2024-03-17T22:30:54;10.40;1.00
6756;DHT22;3415;51.148;7.014;2024-03-17T22:33:21;10.40;1.00
6756;DHT22;3415;51.148;7.014;2024-03-17T22:35:54;10.40;1.00
6756;DHT22;3415;51.148;7.014;2024-03-17T22:38:23;10.40;1.00
6756;DHT22;3415;51.148;7.014;2024-03-17T22:40:54;10.40;1.00
6756;DHT22;3415;51.148;7.014;2024-03-17T22:43:21;10.30;1.00
6756;DHT22;3415;51.148;7.014;2024-03-17T22:45:48;10.30;1.00
6756;DHT22;3415;51.148;7.014;2024-03-17T22:48:17;10.40;1.00
6756;DHT22;3415;51.148;7.014;2024-03-17T22:50:45;10.40;1.00
6756;DHT22;3415;51.148;7.014;2024-03-17T22:53:12;10.40;1.00
